Kaifeng, China
Current Conditions -  °F | °C
As of 5:00 PM on Friday 28 Nov 2014 (Local Time) from ZHCC Reporting Station
Haze Haze  
Wind Chill: 46°   Ceiling: Unl
Heat Index: 46°   Visibility: 2.5mi
Dew Point: 39°   Wind: 2mph
Humidity: 76%   Direction: NA
Pressure: 30.12"   Gusts: NA
Location:  34.85°N, 114.35°E
Report Text: ZHCC 280900Z VRB01MPS 4000 HZ NSC 08/04 Q1020 NOSIG
Loading
Personal Weather Stations






























Interactive Weather Map New forecast layout! Learn more

10-Day Weather Forecast

Advertisements
Track Severe Weather on mobile